createdAt,value
2022-11-06T00:01:55.166Z,98008.09
2022-11-06T00:11:57.865Z,98009.34
2022-11-06T00:21:59.283Z,98005.31
2022-11-06T00:32:00.765Z,97999.25
2022-11-06T00:42:02.205Z,98002.09
2022-11-06T00:52:03.818Z,97995.06
2022-11-06T01:02:05.414Z,97991.81
2022-11-06T01:12:14.817Z,97995.72
2022-11-06T01:22:16.651Z,97998.94
2022-11-06T01:32:18.240Z,97995.66
2022-11-06T01:42:21.170Z,97982.03
2022-11-06T01:52:23.623Z,97986.94
2022-11-06T02:02:25.338Z,97974.00
2022-11-06T02:12:38.637Z,97970.03
2022-11-06T02:22:46.164Z,97973.97
2022-11-06T02:33:01.632Z,97965.22
2022-11-06T02:43:07.381Z,97958.00
2022-11-06T02:53:12.229Z,97959.19
2022-11-06T03:03:45.510Z,97951.31
2022-11-06T03:14:17.072Z,97959.03
2022-11-06T03:24:31.440Z,97948.06
2022-11-06T03:34:42.773Z,97948.44
2022-11-06T03:44:48.344Z,97939.72
2022-11-06T03:55:00.472Z,97928.75
2022-11-06T04:05:08.521Z,97920.63
2022-11-06T04:15:14.631Z,97919.94
2022-11-06T04:26:09.895Z,97921.88
2022-11-06T04:36:30.498Z,97910.69
2022-11-06T04:46:57.621Z,97900.28
2022-11-06T04:57:00.761Z,97898.81
2022-11-06T05:07:02.212Z,97900.72
2022-11-06T05:17:03.671Z,97892.97
2022-11-06T05:27:05.167Z,97881.16
2022-11-06T05:37:06.603Z,97875.91
2022-11-06T05:47:08.085Z,97887.63
2022-11-06T05:57:09.517Z,97869.88
2022-11-06T06:07:11.047Z,97847.84
2022-11-06T06:17:12.488Z,97857.84
2022-11-06T06:27:13.919Z,97849.31
2022-11-06T06:37:19.972Z,97855.00
2022-11-06T06:47:21.725Z,97840.56
2022-11-06T06:57:23.205Z,97855.81
2022-11-06T07:07:24.655Z,97870.31
2022-11-06T07:17:27.604Z,97899.03
2022-11-06T07:27:29.536Z,97914.78
2022-11-06T07:37:30.996Z,97895.16
2022-11-06T07:47:32.530Z,97883.94
2022-11-06T07:57:36.251Z,97886.59
2022-11-06T08:07:37.796Z,97878.16
2022-11-06T08:17:39.305Z,97872.56
2022-11-06T08:27:40.814Z,97842.81
2022-11-06T08:37:42.266Z,97862.25
2022-11-06T08:47:43.763Z,97852.91
2022-11-06T08:57:45.798Z,97828.44
2022-11-06T09:07:47.218Z,97811.19
2022-11-06T09:17:50.549Z,97782.56
2022-11-06T09:27:58.925Z,97773.38
2022-11-06T09:38:06.442Z,97749.78
2022-11-06T09:48:10.593Z,97726.56
2022-11-06T09:58:17.332Z,97719.78
2022-11-06T10:08:22.264Z,97680.09
2022-11-06T10:18:51.703Z,97683.19
2022-11-06T10:29:31.816Z,97668.75
2022-11-06T10:39:35.821Z,97637.44
2022-11-06T10:49:48.106Z,97630.38
2022-11-06T10:59:50.272Z,97604.91
2022-11-06T11:09:51.821Z,97592.97
2022-11-06T11:19:53.298Z,97577.09
2022-11-06T11:29:55.859Z,97554.72
2022-11-06T11:40:28.377Z,97533.22
2022-11-06T11:50:33.961Z,97512.34
2022-11-06T12:00:53.216Z,97499.72
2022-11-06T12:11:02.647Z,97492.03
2022-11-06T12:21:16.093Z,97497.41
2022-11-06T12:31:39.377Z,97489.47
2022-11-06T12:41:46.633Z,97490.44
2022-11-06T12:52:17.547Z,97483.16
2022-11-06T13:02:46.478Z,97460.28
2022-11-06T13:13:02.944Z,97443.19
2022-11-06T13:23:12.810Z,97418.53
2022-11-06T13:33:24.332Z,97386.16
2022-11-06T13:43:28.615Z,97363.63
2022-11-06T13:53:46.040Z,97322.22
2022-11-06T14:04:07.358Z,97315.88
2022-11-06T14:14:25.362Z,97293.97
2022-11-06T14:24:35.259Z,97286.59
2022-11-06T14:34:38.767Z,97287.59
2022-11-06T14:44:45.302Z,97298.41
2022-11-06T14:55:03.447Z,97281.91
2022-11-06T15:05:17.727Z,97273.91
2022-11-06T15:15:20.558Z,97277.59
2022-11-06T15:25:24.012Z,97274.38
2022-11-06T15:35:28.612Z,97284.22
2022-11-06T15:45:30.154Z,97280.38
2022-11-06T15:55:34.895Z,97277.34
2022-11-06T16:05:37.495Z,97286.13
2022-11-06T16:15:41.752Z,97287.34
2022-11-06T16:25:43.565Z,97296.44
2022-11-06T16:35:48.040Z,97283.50
2022-11-06T16:46:01.078Z,97276.59
2022-11-06T16:56:08.013Z,97288.44
2022-11-06T17:06:20.176Z,97292.56
2022-11-06T17:16:24.643Z,97295.56
2022-11-06T17:26:29.236Z,97288.34
2022-11-06T17:36:32.887Z,97288.34
2022-11-06T17:46:40.208Z,97307.09
2022-11-06T17:56:41.717Z,97293.88
2022-11-06T18:06:47.641Z,97293.72
2022-11-06T18:16:50.052Z,97312.47
2022-11-06T18:26:52.161Z,97320.72
2022-11-06T18:36:53.667Z,97301.63
2022-11-06T18:46:55.142Z,97304.09
2022-11-06T18:56:56.589Z,97300.25
2022-11-06T19:06:58.050Z,97294.19
2022-11-06T19:16:59.507Z,97311.06
2022-11-06T19:27:00.950Z,97306.34
2022-11-06T19:37:02.394Z,97310.09
2022-11-06T19:47:03.939Z,97330.34
2022-11-06T19:57:27.143Z,97332.25
2022-11-06T20:07:26.896Z,97338.34
2022-11-06T20:17:28.376Z,97356.44
2022-11-06T20:27:29.851Z,97365.88
2022-11-06T20:37:31.973Z,97372.28
2022-11-06T20:47:33.433Z,97363.38
2022-11-06T20:57:34.936Z,97369.97
2022-11-06T21:07:36.415Z,97381.19
2022-11-06T21:17:42.442Z,97399.34
2022-11-06T21:27:43.961Z,97398.53
2022-11-06T21:37:45.417Z,97409.63
2022-11-06T21:47:46.877Z,97417.25
2022-11-06T21:57:48.342Z,97430.16
2022-11-06T22:07:49.782Z,97459.84
2022-11-06T22:17:51.587Z,97472.50
2022-11-06T22:27:53.172Z,97469.66
2022-11-06T22:37:54.616Z,97465.47
2022-11-06T22:47:56.044Z,97456.34
2022-11-06T22:57:57.521Z,97445.03
2022-11-06T23:07:58.968Z,97472.75
2022-11-06T23:18:00.528Z,97460.94
2022-11-06T23:28:02.403Z,97460.91
2022-11-06T23:38:03.844Z,97463.66
2022-11-06T23:48:11.885Z,97466.34
2022-11-06T23:58:13.386Z,97477.81
